Main page
METAR-TAF:

METAR-TAF

Airports :

Hévíz–Balaton Airport

Hévíz, Hungary

latitude: 46-41-11N, longitude: 017-09-33E, elevation: 124 m

Current weather observation

The report was made 39 minutes ago, at 16:45 UTC
Wind 5 kt from the South
Temperature 20°C
Humidity 40%
Pressure 1010 hPa
Visibility 10 km or more
no clouds below 1500 m and no cumulonimbus

METAR: LHSM 221645Z 17005KT CAVOK 20/06 Q1010 BECMG 08015KT

Time: 19:24 (17:24 UTC)

Forecast

The report was made 3 hours and 9 minutes ago, at 14:15 UTC
Forecast valid from 22 at 15 UTC to 22 at 24 UTC
Wind 10 kt from the South
Visibility 10 km or more
no clouds below 1500 m and no cumulonimbus
Becoming
from 22 at 20 UTC to 22 at 22 UTC
Wind 12 kt from the East

TAF: LHSM 221415Z 2215/2224 18010KT CAVOK BECMG 2220/2222 09012KT

Weather observations and forecasts of more than 4000 airports (METAR and TAF reports).

The available stations are represented by yellow and red dots on the map.

Hover mouse over dot to see the name of the station.

Then click to see weather observations and forecasts.

To change the map : click on the green buttons with a black cross to zoom in, on the green button with a dash to zoom out, or on the green arrows for adjacent maps.


METAR-TAF: